sensor_id;sensor_type;location;lat;lon;timestamp;temperature;humidity
54614;DHT22;40514;52.758;6.360;2022-11-20T00:01:44;-1.40;99.90
54614;DHT22;40514;52.758;6.360;2022-11-20T00:04:10;-1.30;99.90
54614;DHT22;40514;52.758;6.360;2022-11-20T00:06:37;-1.20;99.90
54614;DHT22;40514;52.758;6.360;2022-11-20T00:09:02;-1.20;99.90
54614;DHT22;40514;52.758;6.360;2022-11-20T00:11:29;-1.20;99.90
54614;DHT22;40514;52.758;6.360;2022-11-20T00:13:57;-1.10;99.90
54614;DHT22;40514;52.758;6.360;2022-11-20T00:16:24;-1.10;99.90
54614;DHT22;40514;52.758;6.360;2022-11-20T00:18:50;-1.20;99.90
54614;DHT22;40514;52.758;6.360;2022-11-20T00:21:20;-1.20;99.90
54614;DHT22;40514;52.758;6.360;2022-11-20T00:23:47;-1.30;99.90
54614;DHT22;40514;52.758;6.360;2022-11-20T00:26:14;-1.20;99.90
54614;DHT22;40514;52.758;6.360;2022-11-20T00:28:41;-1.30;99.90
54614;DHT22;40514;52.758;6.360;2022-11-20T00:31:12;-1.30;99.90
54614;DHT22;40514;52.758;6.360;2022-11-20T00:33:39;-1.40;99.90
54614;DHT22;40514;52.758;6.360;2022-11-20T00:36:06;-1.40;99.90
54614;DHT22;40514;52.758;6.360;2022-11-20T00:38:32;-1.40;99.90
54614;DHT22;40514;52.758;6.360;2022-11-20T00:41:00;-1.40;99.90
54614;DHT22;40514;52.758;6.360;2022-11-20T00:43:26;-1.40;99.90
54614;DHT22;40514;52.758;6.360;2022-11-20T00:46:03;-1.40;99.90
54614;DHT22;40514;52.758;6.360;2022-11-20T00:48:29;-1.30;99.90
54614;DHT22;40514;52.758;6.360;2022-11-20T00:50:55;-1.20;99.90
54614;DHT22;40514;52.758;6.360;2022-11-20T00:53:21;-1.20;99.90
54614;DHT22;40514;52.758;6.360;2022-11-20T00:56:17;-1.10;99.90
54614;DHT22;40514;52.758;6.360;2022-11-20T00:58:44;-1.10;99.90
54614;DHT22;40514;52.758;6.360;2022-11-20T01:03:42;-1.00;99.90
54614;DHT22;40514;52.758;6.360;2022-11-20T01:06:29;-1.00;99.90
54614;DHT22;40514;52.758;6.360;2022-11-20T01:08:57;-1.00;99.90
54614;DHT22;40514;52.758;6.360;2022-11-20T01:11:25;-1.00;99.90
54614;DHT22;40514;52.758;6.360;2022-11-20T01:13:51;-1.00;99.90
54614;DHT22;40514;52.758;6.360;2022-11-20T01:16:23;-0.90;99.90
54614;DHT22;40514;52.758;6.360;2022-11-20T01:18:50;-0.80;99.90
54614;DHT22;40514;52.758;6.360;2022-11-20T01:21:39;-0.80;99.90
54614;DHT22;40514;52.758;6.360;2022-11-20T01:24:05;-0.80;99.90
54614;DHT22;40514;52.758;6.360;2022-11-20T01:26:32;-0.80;99.90
54614;DHT22;40514;52.758;6.360;2022-11-20T01:29:00;-0.80;99.90
54614;DHT22;40514;52.758;6.360;2022-11-20T01:31:26;-0.80;99.90
54614;DHT22;40514;52.758;6.360;2022-11-20T01:33:55;-0.70;99.90
54614;DHT22;40514;52.758;6.360;2022-11-20T01:36:23;-0.70;99.90
54614;DHT22;40514;52.758;6.360;2022-11-20T01:38:56;-0.60;99.90
54614;DHT22;40514;52.758;6.360;2022-11-20T01:41:23;-0.60;99.90
54614;DHT22;40514;52.758;6.360;2022-11-20T01:44:11;-0.60;99.90
54614;DHT22;40514;52.758;6.360;2022-11-20T01:46:39;-0.60;99.90
54614;DHT22;40514;52.758;6.360;2022-11-20T01:49:15;-0.60;99.90
54614;DHT22;40514;52.758;6.360;2022-11-20T01:51:51;-0.60;99.90
54614;DHT22;40514;52.758;6.360;2022-11-20T01:55:04;-0.50;99.90
54614;DHT22;40514;52.758;6.360;2022-11-20T01:57:11;-0.50;99.90
54614;DHT22;40514;52.758;6.360;2022-11-20T01:59:44;-0.50;99.90
54614;DHT22;40514;52.758;6.360;2022-11-20T02:02:11;-1.40;99.90
54614;DHT22;40514;52.758;6.360;2022-11-20T02:04:36;-0.40;99.90
54614;DHT22;40514;52.758;6.360;2022-11-20T02:07:03;-0.30;99.90
54614;DHT22;40514;52.758;6.360;2022-11-20T02:09:30;-0.20;99.90
54614;DHT22;40514;52.758;6.360;2022-11-20T02:11:56;-0.30;99.90
54614;DHT22;40514;52.758;6.360;2022-11-20T02:14:22;-0.40;99.90
54614;DHT22;40514;52.758;6.360;2022-11-20T02:16:49;-0.50;99.90
54614;DHT22;40514;52.758;6.360;2022-11-20T02:19:26;-0.60;99.90
54614;DHT22;40514;52.758;6.360;2022-11-20T02:22:05;-0.70;99.90
54614;DHT22;40514;52.758;6.360;2022-11-20T02:24:32;-0.70;99.90
54614;DHT22;40514;52.758;6.360;2022-11-20T02:27:10;-0.80;99.90
54614;DHT22;40514;52.758;6.360;2022-11-20T02:32:03;-0.70;99.90
54614;DHT22;40514;52.758;6.360;2022-11-20T02:34:29;-0.70;99.90
54614;DHT22;40514;52.758;6.360;2022-11-20T02:36:56;-0.60;99.90
54614;DHT22;40514;52.758;6.360;2022-11-20T02:39:24;-0.50;99.90
54614;DHT22;40514;52.758;6.360;2022-11-20T02:41:53;-0.60;99.90
54614;DHT22;40514;52.758;6.360;2022-11-20T02:44:19;-0.60;99.90
54614;DHT22;40514;52.758;6.360;2022-11-20T02:46:45;-0.60;99.90
54614;DHT22;40514;52.758;6.360;2022-11-20T02:49:10;-0.60;99.90
54614;DHT22;40514;52.758;6.360;2022-11-20T02:51:36;-0.70;99.90
54614;DHT22;40514;52.758;6.360;2022-11-20T02:54:02;-0.70;99.90
54614;DHT22;40514;52.758;6.360;2022-11-20T02:56:28;-0.70;99.90
54614;DHT22;40514;52.758;6.360;2022-11-20T02:58:53;-0.70;99.90
54614;DHT22;40514;52.758;6.360;2022-11-20T03:01:19;-0.60;99.90
54614;DHT22;40514;52.758;6.360;2022-11-20T03:03:44;-0.60;99.90
54614;DHT22;40514;52.758;6.360;2022-11-20T03:06:10;-0.60;99.90
54614;DHT22;40514;52.758;6.360;2022-11-20T03:08:35;-0.60;99.90
54614;DHT22;40514;52.758;6.360;2022-11-20T03:11:06;-0.60;99.90
54614;DHT22;40514;52.758;6.360;2022-11-20T03:13:31;-0.50;99.90
54614;DHT22;40514;52.758;6.360;2022-11-20T03:15:57;-0.40;99.90
54614;DHT22;40514;52.758;6.360;2022-11-20T03:18:22;-0.40;99.90
54614;DHT22;40514;52.758;6.360;2022-11-20T03:20:48;-0.30;99.90
54614;DHT22;40514;52.758;6.360;2022-11-20T03:23:13;-0.40;99.90
54614;DHT22;40514;52.758;6.360;2022-11-20T03:25:39;-0.40;99.90
54614;DHT22;40514;52.758;6.360;2022-11-20T03:28:05;-0.40;99.90
54614;DHT22;40514;52.758;6.360;2022-11-20T03:30:30;-0.30;99.90
54614;DHT22;40514;52.758;6.360;2022-11-20T03:32:56;-0.30;99.90
54614;DHT22;40514;52.758;6.360;2022-11-20T03:35:21;-0.30;99.90
54614;DHT22;40514;52.758;6.360;2022-11-20T03:37:47;-0.30;99.90
54614;DHT22;40514;52.758;6.360;2022-11-20T03:40:13;-0.30;99.90
54614;DHT22;40514;52.758;6.360;2022-11-20T03:42:39;-0.20;99.90
54614;DHT22;40514;52.758;6.360;2022-11-20T03:45:10;-0.20;99.90
54614;DHT22;40514;52.758;6.360;2022-11-20T03:47:36;-0.20;99.90
54614;DHT22;40514;52.758;6.360;2022-11-20T03:50:02;-0.20;99.90
54614;DHT22;40514;52.758;6.360;2022-11-20T03:52:28;-0.20;99.90
54614;DHT22;40514;52.758;6.360;2022-11-20T03:54:53;-0.10;99.90
54614;DHT22;40514;52.758;6.360;2022-11-20T03:57:19;-0.10;99.90
54614;DHT22;40514;52.758;6.360;2022-11-20T03:59:44;-0.10;99.90
54614;DHT22;40514;52.758;6.360;2022-11-20T04:02:10;0.00;99.90
54614;DHT22;40514;52.758;6.360;2022-11-20T04:04:35;0.00;99.90
54614;DHT22;40514;52.758;6.360;2022-11-20T04:07:02;0.00;99.90
54614;DHT22;40514;52.758;6.360;2022-11-20T04:09:27;0.00;99.90
54614;DHT22;40514;52.758;6.360;2022-11-20T04:11:53;-0.10;99.90
54614;DHT22;40514;52.758;6.360;2022-11-20T04:14:20;-0.10;99.90
54614;DHT22;40514;52.758;6.360;2022-11-20T04:16:45;-0.20;99.90
54614;DHT22;40514;52.758;6.360;2022-11-20T04:19:13;-0.30;99.90
54614;DHT22;40514;52.758;6.360;2022-11-20T04:21:39;-0.30;99.90
54614;DHT22;40514;52.758;6.360;2022-11-20T04:24:05;-0.30;99.90
54614;DHT22;40514;52.758;6.360;2022-11-20T04:26:31;-0.30;99.90
54614;DHT22;40514;52.758;6.360;2022-11-20T04:28:57;-0.20;99.90
54614;DHT22;40514;52.758;6.360;2022-11-20T04:31:26;-0.20;99.90
54614;DHT22;40514;52.758;6.360;2022-11-20T04:33:52;-0.20;99.90
54614;DHT22;40514;52.758;6.360;2022-11-20T04:36:23;-0.20;99.90
54614;DHT22;40514;52.758;6.360;2022-11-20T04:39:11;-0.20;99.90
54614;DHT22;40514;52.758;6.360;2022-11-20T04:41:37;-0.20;99.90
54614;DHT22;40514;52.758;6.360;2022-11-20T04:44:04;-0.20;99.90
54614;DHT22;40514;52.758;6.360;2022-11-20T04:46:39;-0.10;99.90
54614;DHT22;40514;52.758;6.360;2022-11-20T04:49:05;-0.10;99.90
54614;DHT22;40514;52.758;6.360;2022-11-20T04:51:31;0.00;99.90
54614;DHT22;40514;52.758;6.360;2022-11-20T04:53:56;0.00;99.90
54614;DHT22;40514;52.758;6.360;2022-11-20T04:56:22;-0.10;99.90
54614;DHT22;40514;52.758;6.360;2022-11-20T04:58:48;-0.10;99.90
54614;DHT22;40514;52.758;6.360;2022-11-20T05:01:18;-0.20;99.90
54614;DHT22;40514;52.758;6.360;2022-11-20T05:03:45;-0.20;99.90
54614;DHT22;40514;52.758;6.360;2022-11-20T05:06:13;-0.30;99.90
54614;DHT22;40514;52.758;6.360;2022-11-20T05:08:39;-0.30;99.90
54614;DHT22;40514;52.758;6.360;2022-11-20T05:11:07;-0.20;99.90
54614;DHT22;40514;52.758;6.360;2022-11-20T05:13:33;-0.30;99.90
54614;DHT22;40514;52.758;6.360;2022-11-20T05:16:13;-0.30;99.90
54614;DHT22;40514;52.758;6.360;2022-11-20T05:18:40;-0.30;99.90
54614;DHT22;40514;52.758;6.360;2022-11-20T05:21:06;-0.30;99.90
54614;DHT22;40514;52.758;6.360;2022-11-20T05:23:33;-0.30;99.90
54614;DHT22;40514;52.758;6.360;2022-11-20T05:25:59;-0.30;99.90
54614;DHT22;40514;52.758;6.360;2022-11-20T05:28:25;-0.40;99.90
54614;DHT22;40514;52.758;6.360;2022-11-20T05:30:51;-0.40;99.90
54614;DHT22;40514;52.758;6.360;2022-11-20T05:33:17;-0.40;99.90
54614;DHT22;40514;52.758;6.360;2022-11-20T05:35:43;-0.40;99.90
54614;DHT22;40514;52.758;6.360;2022-11-20T05:38:09;-0.50;99.90
54614;DHT22;40514;52.758;6.360;2022-11-20T05:40:34;-0.40;99.90
54614;DHT22;40514;52.758;6.360;2022-11-20T05:43:01;-0.40;99.90
54614;DHT22;40514;52.758;6.360;2022-11-20T05:45:26;-0.40;99.90
54614;DHT22;40514;52.758;6.360;2022-11-20T05:47:52;-0.30;99.90
54614;DHT22;40514;52.758;6.360;2022-11-20T05:50:18;-0.30;99.90
54614;DHT22;40514;52.758;6.360;2022-11-20T05:52:43;-0.20;99.90
54614;DHT22;40514;52.758;6.360;2022-11-20T05:55:09;-0.20;99.90
54614;DHT22;40514;52.758;6.360;2022-11-20T05:57:34;-0.20;99.90
54614;DHT22;40514;52.758;6.360;2022-11-20T06:00:00;-0.20;99.90
54614;DHT22;40514;52.758;6.360;2022-11-20T06:02:26;-0.10;99.90
54614;DHT22;40514;52.758;6.360;2022-11-20T06:04:51;-0.10;99.90
54614;DHT22;40514;52.758;6.360;2022-11-20T06:07:17;-0.10;99.90
54614;DHT22;40514;52.758;6.360;2022-11-20T06:09:42;-0.10;99.90
54614;DHT22;40514;52.758;6.360;2022-11-20T06:12:08;-0.30;99.90
54614;DHT22;40514;52.758;6.360;2022-11-20T06:14:33;-0.40;99.90
54614;DHT22;40514;52.758;6.360;2022-11-20T06:16:59;-0.40;99.90
54614;DHT22;40514;52.758;6.360;2022-11-20T06:19:25;-0.30;99.90
54614;DHT22;40514;52.758;6.360;2022-11-20T06:21:50;-0.20;99.90
54614;DHT22;40514;52.758;6.360;2022-11-20T06:24:16;-0.20;99.90
54614;DHT22;40514;52.758;6.360;2022-11-20T06:26:42;-0.20;99.90
54614;DHT22;40514;52.758;6.360;2022-11-20T06:29:07;-0.20;99.90
54614;DHT22;40514;52.758;6.360;2022-11-20T06:31:33;-0.20;99.90
54614;DHT22;40514;52.758;6.360;2022-11-20T06:34:05;-0.20;99.90
54614;DHT22;40514;52.758;6.360;2022-11-20T06:36:31;-0.20;99.90
54614;DHT22;40514;52.758;6.360;2022-11-20T06:38:57;0.00;99.90
54614;DHT22;40514;52.758;6.360;2022-11-20T06:41:23;0.00;99.90
54614;DHT22;40514;52.758;6.360;2022-11-20T06:43:48;0.00;99.90
54614;DHT22;40514;52.758;6.360;2022-11-20T06:46:16;0.00;99.90
54614;DHT22;40514;52.758;6.360;2022-11-20T06:48:45;0.00;99.90
54614;DHT22;40514;52.758;6.360;2022-11-20T06:51:11;0.00;99.90
54614;DHT22;40514;52.758;6.360;2022-11-20T06:53:37;0.00;99.90
54614;DHT22;40514;52.758;6.360;2022-11-20T06:56:03;0.00;99.90
54614;DHT22;40514;52.758;6.360;2022-11-20T06:58:31;0.00;99.90
54614;DHT22;40514;52.758;6.360;2022-11-20T07:01:05;0.00;99.90
54614;DHT22;40514;52.758;6.360;2022-11-20T07:03:31;0.00;99.90
54614;DHT22;40514;52.758;6.360;2022-11-20T07:05:57;0.00;99.90
54614;DHT22;40514;52.758;6.360;2022-11-20T07:08:23;0.00;99.90
54614;DHT22;40514;52.758;6.360;2022-11-20T07:10:49;0.00;99.90
54614;DHT22;40514;52.758;6.360;2022-11-20T07:13:14;0.00;99.90
54614;DHT22;40514;52.758;6.360;2022-11-20T07:15:40;0.10;99.90
54614;DHT22;40514;52.758;6.360;2022-11-20T07:18:05;0.00;99.90
54614;DHT22;40514;52.758;6.360;2022-11-20T07:20:31;0.00;99.90
54614;DHT22;40514;52.758;6.360;2022-11-20T07:22:57;0.00;99.90
54614;DHT22;40514;52.758;6.360;2022-11-20T07:25:24;0.00;99.90
54614;DHT22;40514;52.758;6.360;2022-11-20T07:27:49;0.00;99.90
54614;DHT22;40514;52.758;6.360;2022-11-20T07:30:16;0.00;99.90
54614;DHT22;40514;52.758;6.360;2022-11-20T07:32:41;0.10;99.90
54614;DHT22;40514;52.758;6.360;2022-11-20T07:35:07;0.20;99.90
54614;DHT22;40514;52.758;6.360;2022-11-20T07:37:36;0.20;99.90
54614;DHT22;40514;52.758;6.360;2022-11-20T07:40:02;0.30;99.90
54614;DHT22;40514;52.758;6.360;2022-11-20T07:42:27;0.20;99.90
54614;DHT22;40514;52.758;6.360;2022-11-20T07:44:53;0.30;99.90
54614;DHT22;40514;52.758;6.360;2022-11-20T07:47:18;0.20;99.90
54614;DHT22;40514;52.758;6.360;2022-11-20T07:49:44;0.30;99.90
54614;DHT22;40514;52.758;6.360;2022-11-20T07:52:09;0.40;99.90
54614;DHT22;40514;52.758;6.360;2022-11-20T07:54:35;0.40;99.90
54614;DHT22;40514;52.758;6.360;2022-11-20T07:57:00;0.40;99.90
54614;DHT22;40514;52.758;6.360;2022-11-20T07:59:26;0.40;99.90
54614;DHT22;40514;52.758;6.360;2022-11-20T08:01:51;0.40;99.90
54614;DHT22;40514;52.758;6.360;2022-11-20T08:04:17;0.50;99.90
54614;DHT22;40514;52.758;6.360;2022-11-20T08:06:42;0.60;99.90
54614;DHT22;40514;52.758;6.360;2022-11-20T08:09:08;0.70;99.90
54614;DHT22;40514;52.758;6.360;2022-11-20T08:11:34;0.70;99.90
54614;DHT22;40514;52.758;6.360;2022-11-20T08:14:18;0.70;99.90
54614;DHT22;40514;52.758;6.360;2022-11-20T08:16:46;0.60;99.90
54614;DHT22;40514;52.758;6.360;2022-11-20T08:19:13;0.50;99.90
54614;DHT22;40514;52.758;6.360;2022-11-20T08:21:39;0.50;99.90
54614;DHT22;40514;52.758;6.360;2022-11-20T08:24:06;0.60;99.90
54614;DHT22;40514;52.758;6.360;2022-11-20T08:26:31;0.70;99.90
54614;DHT22;40514;52.758;6.360;2022-11-20T08:28:58;0.70;99.90
54614;DHT22;40514;52.758;6.360;2022-11-20T08:31:25;0.70;99.90
54614;DHT22;40514;52.758;6.360;2022-11-20T08:33:51;0.80;99.90
54614;DHT22;40514;52.758;6.360;2022-11-20T08:36:16;0.90;99.90
54614;DHT22;40514;52.758;6.360;2022-11-20T08:38:42;0.80;99.90
54614;DHT22;40514;52.758;6.360;2022-11-20T08:41:11;0.80;99.90
54614;DHT22;40514;52.758;6.360;2022-11-20T08:43:49;0.80;99.90
54614;DHT22;40514;52.758;6.360;2022-11-20T08:46:15;0.80;99.90
54614;DHT22;40514;52.758;6.360;2022-11-20T08:48:41;0.80;99.90
54614;DHT22;40514;52.758;6.360;2022-11-20T08:51:06;0.90;99.90
54614;DHT22;40514;52.758;6.360;2022-11-20T08:53:32;0.90;99.90
54614;DHT22;40514;52.758;6.360;2022-11-20T08:55:58;0.90;99.90
54614;DHT22;40514;52.758;6.360;2022-11-20T08:58:25;0.90;99.90
54614;DHT22;40514;52.758;6.360;2022-11-20T09:00:50;0.90;99.90
54614;DHT22;40514;52.758;6.360;2022-11-20T09:03:16;0.90;99.90
54614;DHT22;40514;52.758;6.360;2022-11-20T09:05:41;0.90;99.90
54614;DHT22;40514;52.758;6.360;2022-11-20T09:08:08;0.80;99.90
54614;DHT22;40514;52.758;6.360;2022-11-20T09:10:33;0.90;99.90
54614;DHT22;40514;52.758;6.360;2022-11-20T09:12:59;1.80;99.90
54614;DHT22;40514;52.758;6.360;2022-11-20T09:15:25;3.20;99.90
54614;DHT22;40514;52.758;6.360;2022-11-20T09:17:59;4.00;99.90
54614;DHT22;40514;52.758;6.360;2022-11-20T09:20:26;4.20;99.90
54614;DHT22;40514;52.758;6.360;2022-11-20T09:22:51;4.10;99.90
54614;DHT22;40514;52.758;6.360;2022-11-20T09:25:17;4.00;99.90
54614;DHT22;40514;52.758;6.360;2022-11-20T09:27:43;3.80;99.90
54614;DHT22;40514;52.758;6.360;2022-11-20T09:30:12;3.60;99.90
54614;DHT22;40514;52.758;6.360;2022-11-20T09:32:42;3.40;99.90
54614;DHT22;40514;52.758;6.360;2022-11-20T09:35:08;3.20;99.90
54614;DHT22;40514;52.758;6.360;2022-11-20T09:37:34;3.00;99.90
54614;DHT22;40514;52.758;6.360;2022-11-20T09:39:59;3.10;99.90
54614;DHT22;40514;52.758;6.360;2022-11-20T09:48:14;3.00;99.90
54614;DHT22;40514;52.758;6.360;2022-11-20T09:51:05;3.10;99.90
54614;DHT22;40514;52.758;6.360;2022-11-20T09:53:46;3.20;99.90
54614;DHT22;40514;52.758;6.360;2022-11-20T09:56:17;3.40;99.90
54614;DHT22;40514;52.758;6.360;2022-11-20T09:58:52;3.80;99.90
54614;DHT22;40514;52.758;6.360;2022-11-20T10:01:26;4.90;99.90
54614;DHT22;40514;52.758;6.360;2022-11-20T10:04:01;6.20;99.90
54614;DHT22;40514;52.758;6.360;2022-11-20T10:06:33;7.60;99.90
54614;DHT22;40514;52.758;6.360;2022-11-20T10:11:48;9.80;99.90
54614;DHT22;40514;52.758;6.360;2022-11-20T10:25:19;12.50;72.10
54614;DHT22;40514;52.758;6.360;2022-11-20T10:27:53;13.00;75.80
54614;DHT22;40514;52.758;6.360;2022-11-20T10:30:21;13.50;72.30
54614;DHT22;40514;52.758;6.360;2022-11-20T10:32:53;13.90;69.70
54614;DHT22;40514;52.758;6.360;2022-11-20T10:35:24;14.20;64.30
54614;DHT22;40514;52.758;6.360;2022-11-20T10:37:58;14.60;64.50
54614;DHT22;40514;52.758;6.360;2022-11-20T10:43:00;15.30;60.70
54614;DHT22;40514;52.758;6.360;2022-11-20T10:45:38;15.40;60.80
54614;DHT22;40514;52.758;6.360;2022-11-20T10:48:24;15.50;60.90
54614;DHT22;40514;52.758;6.360;2022-11-20T10:56:28;16.30;53.50
54614;DHT22;40514;52.758;6.360;2022-11-20T11:01:27;16.20;53.00
54614;DHT22;40514;52.758;6.360;2022-11-20T11:03:54;15.40;54.00
54614;DHT22;40514;52.758;6.360;2022-11-20T11:06:33;14.20;54.20
54614;DHT22;40514;52.758;6.360;2022-11-20T11:09:18;13.00;53.30
54614;DHT22;40514;52.758;6.360;2022-11-20T11:11:45;11.90;56.30
54614;DHT22;40514;52.758;6.360;2022-11-20T11:14:13;11.00;58.20
54614;DHT22;40514;52.758;6.360;2022-11-20T11:16:54;10.40;59.30
54614;DHT22;40514;52.758;6.360;2022-11-20T11:19:20;9.80;58.90
54614;DHT22;40514;52.758;6.360;2022-11-20T11:21:47;9.20;60.50
54614;DHT22;40514;52.758;6.360;2022-11-20T11:24:21;9.00;61.70
54614;DHT22;40514;52.758;6.360;2022-11-20T11:27:01;8.80;61.90
54614;DHT22;40514;52.758;6.360;2022-11-20T11:29:30;8.50;60.90
54614;DHT22;40514;52.758;6.360;2022-11-20T11:32:14;8.20;61.00
54614;DHT22;40514;52.758;6.360;2022-11-20T11:34:40;8.00;61.20
54614;DHT22;40514;52.758;6.360;2022-11-20T11:37:15;7.70;62.20
54614;DHT22;40514;52.758;6.360;2022-11-20T11:39:43;7.70;62.60
54614;DHT22;40514;52.758;6.360;2022-11-20T11:42:13;7.60;63.90
54614;DHT22;40514;52.758;6.360;2022-11-20T11:44:44;7.50;63.70
54614;DHT22;40514;52.758;6.360;2022-11-20T11:47:37;7.30;63.60
54614;DHT22;40514;52.758;6.360;2022-11-20T11:53:13;7.00;65.00
54614;DHT22;40514;52.758;6.360;2022-11-20T11:55:46;7.00;65.10
54614;DHT22;40514;52.758;6.360;2022-11-20T12:01:01;7.20;65.80
54614;DHT22;40514;52.758;6.360;2022-11-20T12:03:37;7.30;65.90
54614;DHT22;40514;52.758;6.360;2022-11-20T12:06:14;7.50;65.10
54614;DHT22;40514;52.758;6.360;2022-11-20T12:11:34;7.30;64.60
54614;DHT22;40514;52.758;6.360;2022-11-20T12:14:20;6.90;65.30
54614;DHT22;40514;52.758;6.360;2022-11-20T12:16:50;6.70;66.10
54614;DHT22;40514;52.758;6.360;2022-11-20T12:19:17;6.50;67.10
54614;DHT22;40514;52.758;6.360;2022-11-20T12:30:19;6.10;71.50
54614;DHT22;40514;52.758;6.360;2022-11-20T12:38:39;6.00;73.60
54614;DHT22;40514;52.758;6.360;2022-11-20T12:47:21;5.60;74.80
54614;DHT22;40514;52.758;6.360;2022-11-20T12:58:36;5.50;79.60
54614;DHT22;40514;52.758;6.360;2022-11-20T13:07:03;5.40;81.50
54614;DHT22;40514;52.758;6.360;2022-11-20T13:09:32;5.30;82.30
54614;DHT22;40514;52.758;6.360;2022-11-20T13:12:28;5.30;82.90
54614;DHT22;40514;52.758;6.360;2022-11-20T13:15:18;5.20;84.20
54614;DHT22;40514;52.758;6.360;2022-11-20T13:17:59;5.30;85.50
54614;DHT22;40514;52.758;6.360;2022-11-20T13:20:25;5.30;85.60
54614;DHT22;40514;52.758;6.360;2022-11-20T13:22:53;5.30;85.80
54614;DHT22;40514;52.758;6.360;2022-11-20T13:25:28;5.10;86.10
54614;DHT22;40514;52.758;6.360;2022-11-20T13:27:55;5.10;87.10
54614;DHT22;40514;52.758;6.360;2022-11-20T13:30:23;5.10;87.60
54614;DHT22;40514;52.758;6.360;2022-11-20T13:35:40;5.10;89.00
54614;DHT22;40514;52.758;6.360;2022-11-20T13:38:07;5.20;89.90
54614;DHT22;40514;52.758;6.360;2022-11-20T13:40:37;5.10;90.10
54614;DHT22;40514;52.758;6.360;2022-11-20T13:43:20;5.10;90.50
54614;DHT22;40514;52.758;6.360;2022-11-20T13:46:05;5.10;91.00
54614;DHT22;40514;52.758;6.360;2022-11-20T13:48:33;5.00;91.20
54614;DHT22;40514;52.758;6.360;2022-11-20T13:51:36;5.00;91.60
54614;DHT22;40514;52.758;6.360;2022-11-20T13:59:46;4.70;92.90
54614;DHT22;40514;52.758;6.360;2022-11-20T14:02:17;4.70;93.60
54614;DHT22;40514;52.758;6.360;2022-11-20T14:04:46;4.70;93.70
54614;DHT22;40514;52.758;6.360;2022-11-20T14:07:13;4.70;94.00
54614;DHT22;40514;52.758;6.360;2022-11-20T14:09:53;4.70;94.40
54614;DHT22;40514;52.758;6.360;2022-11-20T14:12:21;4.70;94.90
54614;DHT22;40514;52.758;6.360;2022-11-20T14:14:52;4.80;95.00
54614;DHT22;40514;52.758;6.360;2022-11-20T14:17:19;4.70;95.10
54614;DHT22;40514;52.758;6.360;2022-11-20T14:19:47;4.70;95.30
54614;DHT22;40514;52.758;6.360;2022-11-20T14:22:25;4.60;95.80
54614;DHT22;40514;52.758;6.360;2022-11-20T14:25:27;4.50;96.60
54614;DHT22;40514;52.758;6.360;2022-11-20T14:28:00;4.50;97.00
54614;DHT22;40514;52.758;6.360;2022-11-20T14:30:28;4.50;97.00
54614;DHT22;40514;52.758;6.360;2022-11-20T14:32:57;4.50;97.10
54614;DHT22;40514;52.758;6.360;2022-11-20T14:35:30;4.40;97.50
54614;DHT22;40514;52.758;6.360;2022-11-20T14:37:57;4.40;97.90
54614;DHT22;40514;52.758;6.360;2022-11-20T14:40:34;4.40;98.20
54614;DHT22;40514;52.758;6.360;2022-11-20T14:43:02;4.40;98.70
54614;DHT22;40514;52.758;6.360;2022-11-20T14:45:30;4.30;99.00
54614;DHT22;40514;52.758;6.360;2022-11-20T14:47:56;4.20;99.50
54614;DHT22;40514;52.758;6.360;2022-11-20T14:50:28;4.20;99.70
54614;DHT22;40514;52.758;6.360;2022-11-20T14:52:59;4.20;99.90
54614;DHT22;40514;52.758;6.360;2022-11-20T14:55:53;4.10;99.90
54614;DHT22;40514;52.758;6.360;2022-11-20T14:58:24;4.10;99.90
54614;DHT22;40514;52.758;6.360;2022-11-20T15:01:02;4.10;99.90
54614;DHT22;40514;52.758;6.360;2022-11-20T15:03:37;4.10;99.90
54614;DHT22;40514;52.758;6.360;2022-11-20T15:06:04;4.10;99.90
54614;DHT22;40514;52.758;6.360;2022-11-20T15:08:30;4.10;99.90
54614;DHT22;40514;52.758;6.360;2022-11-20T15:10:56;4.10;99.90
54614;DHT22;40514;52.758;6.360;2022-11-20T15:13:34;4.20;99.90
54614;DHT22;40514;52.758;6.360;2022-11-20T15:16:03;4.10;99.90
54614;DHT22;40514;52.758;6.360;2022-11-20T15:18:32;4.10;99.90
54614;DHT22;40514;52.758;6.360;2022-11-20T15:21:03;4.20;99.90
54614;DHT22;40514;52.758;6.360;2022-11-20T15:23:29;4.30;99.90
54614;DHT22;40514;52.758;6.360;2022-11-20T15:25:55;4.30;99.90
54614;DHT22;40514;52.758;6.360;2022-11-20T15:28:41;4.30;99.90
54614;DHT22;40514;52.758;6.360;2022-11-20T15:31:12;4.30;99.90
54614;DHT22;40514;52.758;6.360;2022-11-20T15:33:37;4.20;99.90
54614;DHT22;40514;52.758;6.360;2022-11-20T15:36:03;4.20;99.90
54614;DHT22;40514;52.758;6.360;2022-11-20T15:38:28;4.10;99.90
54614;DHT22;40514;52.758;6.360;2022-11-20T15:40:54;4.10;99.90
54614;DHT22;40514;52.758;6.360;2022-11-20T15:43:20;4.10;99.90
54614;DHT22;40514;52.758;6.360;2022-11-20T15:45:49;4.20;99.90
54614;DHT22;40514;52.758;6.360;2022-11-20T15:48:18;4.10;99.90
54614;DHT22;40514;52.758;6.360;2022-11-20T15:53:29;4.10;99.90
54614;DHT22;40514;52.758;6.360;2022-11-20T15:55:55;4.00;99.90
54614;DHT22;40514;52.758;6.360;2022-11-20T15:58:20;4.00;99.90
54614;DHT22;40514;52.758;6.360;2022-11-20T16:00:48;4.00;99.90
54614;DHT22;40514;52.758;6.360;2022-11-20T16:03:15;4.00;99.90
54614;DHT22;40514;52.758;6.360;2022-11-20T16:05:40;4.00;99.90
54614;DHT22;40514;52.758;6.360;2022-11-20T16:08:06;4.00;99.90
54614;DHT22;40514;52.758;6.360;2022-11-20T16:10:32;4.10;99.90
54614;DHT22;40514;52.758;6.360;2022-11-20T16:12:58;4.10;99.90
54614;DHT22;40514;52.758;6.360;2022-11-20T16:15:42;4.10;99.90
54614;DHT22;40514;52.758;6.360;2022-11-20T16:18:18;4.10;99.90
54614;DHT22;40514;52.758;6.360;2022-11-20T16:20:50;4.10;99.90
54614;DHT22;40514;52.758;6.360;2022-11-20T16:23:16;4.00;99.90
54614;DHT22;40514;52.758;6.360;2022-11-20T16:25:43;4.00;99.90
54614;DHT22;40514;52.758;6.360;2022-11-20T16:28:09;4.00;99.90
54614;DHT22;40514;52.758;6.360;2022-11-20T16:30:34;4.10;99.90
54614;DHT22;40514;52.758;6.360;2022-11-20T16:33:01;4.10;99.90
54614;DHT22;40514;52.758;6.360;2022-11-20T16:35:31;4.10;99.90
54614;DHT22;40514;52.758;6.360;2022-11-20T16:37:57;4.10;99.90
54614;DHT22;40514;52.758;6.360;2022-11-20T16:40:23;4.10;99.90
54614;DHT22;40514;52.758;6.360;2022-11-20T16:42:49;4.10;99.90
54614;DHT22;40514;52.758;6.360;2022-11-20T16:45:15;4.10;99.90
54614;DHT22;40514;52.758;6.360;2022-11-20T16:47:40;4.00;99.90
54614;DHT22;40514;52.758;6.360;2022-11-20T16:50:07;4.00;99.90
54614;DHT22;40514;52.758;6.360;2022-11-20T16:52:32;4.00;99.90
54614;DHT22;40514;52.758;6.360;2022-11-20T16:54:59;3.90;99.90
54614;DHT22;40514;52.758;6.360;2022-11-20T16:57:27;3.90;99.90
54614;DHT22;40514;52.758;6.360;2022-11-20T16:59:52;3.90;99.90
54614;DHT22;40514;52.758;6.360;2022-11-20T17:02:18;3.80;99.90
54614;DHT22;40514;52.758;6.360;2022-11-20T17:04:43;3.80;99.90
54614;DHT22;40514;52.758;6.360;2022-11-20T17:07:09;3.80;99.90
54614;DHT22;40514;52.758;6.360;2022-11-20T17:09:35;3.80;99.90
54614;DHT22;40514;52.758;6.360;2022-11-20T17:12:00;3.70;99.90
54614;DHT22;40514;52.758;6.360;2022-11-20T17:14:26;3.70;99.90
54614;DHT22;40514;52.758;6.360;2022-11-20T17:16:51;3.60;99.90
54614;DHT22;40514;52.758;6.360;2022-11-20T17:19:17;3.60;99.90
54614;DHT22;40514;52.758;6.360;2022-11-20T17:21:43;3.50;99.90